sensor_id;sensor_type;location;lat;lon;timestamp;pressure;altitude;pressure_sealevel;temperature;humidity
65754;BME280;52488;47.502;18.940;2022-08-19T00:00:43;97621.69;;;26.78;44.96
65754;BME280;52488;47.502;18.940;2022-08-19T00:01:54;97618.84;;;26.82;44.63
65754;BME280;52488;47.502;18.940;2022-08-19T00:02:57;97620.25;;;26.81;44.55
65754;BME280;52488;47.502;18.940;2022-08-19T00:04:02;97616.06;;;26.68;44.96
65754;BME280;52488;47.502;18.940;2022-08-19T00:05:06;97623.84;;;26.61;45.15
65754;BME280;52488;47.502;18.940;2022-08-19T00:06:09;97618.94;;;26.47;45.52
65754;BME280;52488;47.502;18.940;2022-08-19T00:07:12;97621.69;;;26.70;44.79
65754;BME280;52488;47.502;18.940;2022-08-19T00:08:15;97620.31;;;26.71;44.92
65754;BME280;52488;47.502;18.940;2022-08-19T00:09:19;97618.19;;;26.71;44.76
65754;BME280;52488;47.502;18.940;2022-08-19T00:10:22;97616.03;;;26.80;44.61
65754;BME280;52488;47.502;18.940;2022-08-19T00:11:26;97611.88;;;26.58;45.00
65754;BME280;52488;47.502;18.940;2022-08-19T00:12:30;97605.53;;;26.66;44.72
65754;BME280;52488;47.502;18.940;2022-08-19T00:13:33;97616.75;;;26.70;44.94
65754;BME280;52488;47.502;18.940;2022-08-19T00:14:37;97606.19;;;26.73;44.70
65754;BME280;52488;47.502;18.940;2022-08-19T00:15:40;97606.22;;;26.58;45.01
65754;BME280;52488;47.502;18.940;2022-08-19T00:16:48;97617.47;;;26.69;44.87
65754;BME280;52488;47.502;18.940;2022-08-19T00:17:51;97611.12;;;26.78;44.59
65754;BME280;52488;47.502;18.940;2022-08-19T00:18:54;97616.06;;;26.68;44.73
65754;BME280;52488;47.502;18.940;2022-08-19T00:19:57;97616.81;;;26.58;45.11
65754;BME280;52488;47.502;18.940;2022-08-19T00:21:00;97609.06;;;26.56;45.18
65754;BME280;52488;47.502;18.940;2022-08-19T00:22:04;97617.50;;;26.67;44.88
65754;BME280;52488;47.502;18.940;2022-08-19T00:23:07;97611.84;;;26.67;44.79
65754;BME280;52488;47.502;18.940;2022-08-19T00:24:12;97611.88;;;26.56;45.25
65754;BME280;52488;47.502;18.940;2022-08-19T00:25:16;97620.34;;;26.50;45.54
65754;BME280;52488;47.502;18.940;2022-08-19T00:26:19;97610.47;;;26.66;44.79
65754;BME280;52488;47.502;18.940;2022-08-19T00:27:22;97617.53;;;26.52;45.25
65754;BME280;52488;47.502;18.940;2022-08-19T00:28:28;97609.78;;;26.43;45.41
65754;BME280;52488;47.502;18.940;2022-08-19T00:29:31;97614.03;;;26.38;45.59
65754;BME280;52488;47.502;18.940;2022-08-19T00:30:33;97610.50;;;26.39;45.75
65754;BME280;52488;47.502;18.940;2022-08-19T00:31:36;97614.72;;;26.42;45.63
65754;BME280;52488;47.502;18.940;2022-08-19T00:32:39;97614.69;;;26.56;45.07
65754;BME280;52488;47.502;18.940;2022-08-19T00:33:42;97616.13;;;26.51;45.33
65754;BME280;52488;47.502;18.940;2022-08-19T00:34:45;97611.88;;;26.52;45.08
65754;BME280;52488;47.502;18.940;2022-08-19T00:35:48;97605.56;;;26.42;45.55
65754;BME280;52488;47.502;18.940;2022-08-19T00:36:57;97613.28;;;26.53;45.28
65754;BME280;52488;47.502;18.940;2022-08-19T00:38:02;97614.00;;;26.36;45.61
65754;BME280;52488;47.502;18.940;2022-08-19T00:39:04;97613.34;;;26.27;45.81
65754;BME280;52488;47.502;18.940;2022-08-19T00:40:07;97602.78;;;26.13;46.33
65754;BME280;52488;47.502;18.940;2022-08-19T00:41:15;97607.66;;;26.31;45.98
65754;BME280;52488;47.502;18.940;2022-08-19T00:42:21;97610.50;;;26.39;45.47
65754;BME280;52488;47.502;18.940;2022-08-19T00:43:27;97612.59;;;26.37;45.57
65754;BME280;52488;47.502;18.940;2022-08-19T00:44:30;97609.13;;;26.22;46.07
65754;BME280;52488;47.502;18.940;2022-08-19T00:45:32;97601.31;;;26.37;45.57
65754;BME280;52488;47.502;18.940;2022-08-19T00:46:39;97604.88;;;26.43;45.44
65754;BME280;52488;47.502;18.940;2022-08-19T00:47:43;97606.25;;;26.50;45.30
65754;BME280;52488;47.502;18.940;2022-08-19T00:48:46;97607.66;;;26.51;45.21
65754;BME280;52488;47.502;18.940;2022-08-19T00:49:56;97604.88;;;26.49;45.41
65754;BME280;52488;47.502;18.940;2022-08-19T00:50:59;97602.06;;;26.33;45.77
65754;BME280;52488;47.502;18.940;2022-08-19T00:52:11;97593.66;;;26.11;46.27
65754;BME280;52488;47.502;18.940;2022-08-19T00:53:17;97603.47;;;26.14;46.25
65754;BME280;52488;47.502;18.940;2022-08-19T00:54:21;97597.16;;;26.13;46.24
65754;BME280;52488;47.502;18.940;2022-08-19T00:55:32;97602.06;;;26.15;46.29
65754;BME280;52488;47.502;18.940;2022-08-19T00:56:39;97600.66;;;26.28;45.76
65754;BME280;52488;47.502;18.940;2022-08-19T00:57:46;97599.25;;;26.21;45.72
65754;BME280;52488;47.502;18.940;2022-08-19T00:58:50;97599.94;;;26.29;45.90
65754;BME280;52488;47.502;18.940;2022-08-19T00:59:55;97611.94;;;26.10;46.31
65754;BME280;52488;47.502;18.940;2022-08-19T01:01:04;97602.75;;;26.23;45.86
65754;BME280;52488;47.502;18.940;2022-08-19T01:02:08;97607.66;;;26.35;45.46
65754;BME280;52488;47.502;18.940;2022-08-19T01:03:14;97612.62;;;26.28;45.84
65754;BME280;52488;47.502;18.940;2022-08-19T01:04:20;97606.28;;;26.20;46.05
65754;BME280;52488;47.502;18.940;2022-08-19T01:05:26;97609.81;;;26.08;46.47
65754;BME280;52488;47.502;18.940;2022-08-19T01:06:30;97609.81;;;26.16;46.13
65754;BME280;52488;47.502;18.940;2022-08-19T01:07:37;97603.47;;;26.03;46.48
65754;BME280;52488;47.502;18.940;2022-08-19T01:08:41;97598.56;;;26.16;45.84
65754;BME280;52488;47.502;18.940;2022-08-19T01:09:44;97600.63;;;26.34;45.31
65754;BME280;52488;47.502;18.940;2022-08-19T01:10:58;97600.63;;;26.30;45.45
65754;BME280;52488;47.502;18.940;2022-08-19T01:12:02;97609.81;;;26.12;45.96
65754;BME280;52488;47.502;18.940;2022-08-19T01:13:05;97604.88;;;26.15;45.94
65754;BME280;52488;47.502;18.940;2022-08-19T01:14:12;97602.06;;;26.17;45.93
65754;BME280;52488;47.502;18.940;2022-08-19T01:15:19;97601.38;;;26.12;46.01
65754;BME280;52488;47.502;18.940;2022-08-19T01:16:25;97601.38;;;26.00;46.19
65754;BME280;52488;47.502;18.940;2022-08-19T01:17:29;97597.84;;;25.81;46.72
65754;BME280;52488;47.502;18.940;2022-08-19T01:18:36;97593.63;;;25.96;46.68
65754;BME280;52488;47.502;18.940;2022-08-19T01:19:42;97597.16;;;25.95;46.34
65754;BME280;52488;47.502;18.940;2022-08-19T01:20:46;97595.03;;;25.87;46.75
65754;BME280;52488;47.502;18.940;2022-08-19T01:23:17;97595.03;;;25.73;46.88
65754;BME280;52488;47.502;18.940;2022-08-19T01:24:19;97601.41;;;25.88;46.64
65754;BME280;52488;47.502;18.940;2022-08-19T01:25:29;97595.75;;;26.00;46.11
65754;BME280;52488;47.502;18.940;2022-08-19T01:26:40;97593.66;;;26.00;46.20
65754;BME280;52488;47.502;18.940;2022-08-19T01:27:48;97594.34;;;25.74;46.90
65754;BME280;52488;47.502;18.940;2022-08-19T01:28:57;97597.16;;;25.74;47.63
65754;BME280;52488;47.502;18.940;2022-08-19T01:30:04;97594.34;;;25.87;46.75
65754;BME280;52488;47.502;18.940;2022-08-19T01:31:11;97593.66;;;26.00;46.03
65754;BME280;52488;47.502;18.940;2022-08-19T01:32:28;97586.59;;;25.91;46.27
65754;BME280;52488;47.502;18.940;2022-08-19T01:33:35;97595.06;;;25.93;46.39
65754;BME280;52488;47.502;18.940;2022-08-19T01:34:38;97584.50;;;25.96;46.17
65754;BME280;52488;47.502;18.940;2022-08-19T01:35:41;97589.44;;;25.99;46.21
65754;BME280;52488;47.502;18.940;2022-08-19T01:36:46;97585.22;;;25.78;46.73
65754;BME280;52488;47.502;18.940;2022-08-19T01:37:56;97587.28;;;25.69;46.71
65754;BME280;52488;47.502;18.940;2022-08-19T01:39:02;97577.47;;;25.83;46.53
65754;BME280;52488;47.502;18.940;2022-08-19T01:40:06;97573.94;;;25.80;46.65
65754;BME280;52488;47.502;18.940;2022-08-19T01:41:11;97582.41;;;25.84;46.74
65754;BME280;52488;47.502;18.940;2022-08-19T01:42:14;97581.00;;;25.83;46.84
65754;BME280;52488;47.502;18.940;2022-08-19T01:43:17;97576.03;;;25.69;47.09
65754;BME280;52488;47.502;18.940;2022-08-19T01:44:21;97572.53;;;25.75;46.74
65754;BME280;52488;47.502;18.940;2022-08-19T01:45:28;97567.63;;;25.90;46.26
65754;BME280;52488;47.502;18.940;2022-08-19T01:46:32;97569.72;;;25.81;46.88
65754;BME280;52488;47.502;18.940;2022-08-19T01:47:36;97559.84;;;25.68;47.13
65754;BME280;52488;47.502;18.940;2022-08-19T01:48:41;97559.84;;;25.70;47.30
65754;BME280;52488;47.502;18.940;2022-08-19T01:49:45;97569.72;;;25.54;47.29
65754;BME280;52488;47.502;18.940;2022-08-19T01:50:48;97558.44;;;25.48;47.12
65754;BME280;52488;47.502;18.940;2022-08-19T01:51:51;97555.63;;;25.65;46.97
65754;BME280;52488;47.502;18.940;2022-08-19T01:52:55;97562.66;;;25.70;46.95
65754;BME280;52488;47.502;18.940;2022-08-19T01:54:09;97554.25;;;25.60;47.08
65754;BME280;52488;47.502;18.940;2022-08-19T01:55:15;97557.03;;;25.62;47.12
65754;BME280;52488;47.502;18.940;2022-08-19T01:56:19;97552.81;;;25.48;47.31
65754;BME280;52488;47.502;18.940;2022-08-19T01:57:22;97544.38;;;25.42;47.96
65754;BME280;52488;47.502;18.940;2022-08-19T01:58:33;97550.69;;;25.41;47.89
65754;BME280;52488;47.502;18.940;2022-08-19T01:59:39;97550.00;;;25.57;47.25
65754;BME280;52488;47.502;18.940;2022-08-19T02:00:43;97549.31;;;25.56;46.93
65754;BME280;52488;47.502;18.940;2022-08-19T02:01:45;97541.56;;;25.42;47.45
65754;BME280;52488;47.502;18.940;2022-08-19T02:02:49;97541.56;;;25.59;47.28
65754;BME280;52488;47.502;18.940;2022-08-19T02:03:51;97540.88;;;25.50;47.24
65754;BME280;52488;47.502;18.940;2022-08-19T02:04:58;97544.38;;;25.38;47.94
65754;BME280;52488;47.502;18.940;2022-08-19T02:06:02;97529.63;;;25.50;47.38
65754;BME280;52488;47.502;18.940;2022-08-19T02:07:06;97540.16;;;25.45;47.46
65754;BME280;52488;47.502;18.940;2022-08-19T02:08:11;97535.94;;;25.36;47.89
65754;BME280;52488;47.502;18.940;2022-08-19T02:09:14;97535.22;;;25.64;46.70
65754;BME280;52488;47.502;18.940;2022-08-19T02:10:20;97540.88;;;25.60;47.03
65754;BME280;52488;47.502;18.940;2022-08-19T02:11:27;97537.34;;;25.62;47.11
65754;BME280;52488;47.502;18.940;2022-08-19T02:12:30;97541.56;;;25.59;46.81
65754;BME280;52488;47.502;18.940;2022-08-19T02:13:33;97542.97;;;25.39;47.54
65754;BME280;52488;47.502;18.940;2022-08-19T02:14:36;97541.53;;;25.30;47.59
65754;BME280;52488;47.502;18.940;2022-08-19T02:15:39;97540.16;;;25.56;46.95
65754;BME280;52488;47.502;18.940;2022-08-19T02:16:42;97544.38;;;25.59;46.83
65754;BME280;52488;47.502;18.940;2022-08-19T02:17:46;97545.78;;;25.49;47.06
65754;BME280;52488;47.502;18.940;2022-08-19T02:18:49;97545.09;;;25.55;47.15
65754;BME280;52488;47.502;18.940;2022-08-19T02:19:52;97544.38;;;25.57;46.66
65754;BME280;52488;47.502;18.940;2022-08-19T02:20:54;97541.56;;;25.57;47.27
65754;BME280;52488;47.502;18.940;2022-08-19T02:21:58;97540.16;;;25.41;47.20
65754;BME280;52488;47.502;18.940;2022-08-19T02:23:01;97540.84;;;25.58;46.74
65754;BME280;52488;47.502;18.940;2022-08-19T02:24:04;97537.31;;;25.37;47.38
65754;BME280;52488;47.502;18.940;2022-08-19T02:25:08;97528.88;;;25.37;47.49
65754;BME280;52488;47.502;18.940;2022-08-19T02:26:11;97525.41;;;25.39;47.50
65754;BME280;52488;47.502;18.940;2022-08-19T02:27:15;97529.59;;;25.23;48.13
65754;BME280;52488;47.502;18.940;2022-08-19T02:28:18;97520.47;;;25.27;47.72
65754;BME280;52488;47.502;18.940;2022-08-19T02:29:21;97526.06;;;25.25;47.87
65754;BME280;52488;47.502;18.940;2022-08-19T02:30:24;97525.38;;;25.31;47.68
65754;BME280;52488;47.502;18.940;2022-08-19T02:31:27;97522.53;;;25.14;48.18
65754;BME280;52488;47.502;18.940;2022-08-19T02:32:30;97530.28;;;25.22;48.00
65754;BME280;52488;47.502;18.940;2022-08-19T02:33:33;97531.69;;;25.31;47.93
65754;BME280;52488;47.502;18.940;2022-08-19T02:34:36;97533.81;;;25.28;47.72
65754;BME280;52488;47.502;18.940;2022-08-19T02:35:46;97535.91;;;25.30;47.77
65754;BME280;52488;47.502;18.940;2022-08-19T02:36:52;97539.44;;;25.24;48.40
65754;BME280;52488;47.502;18.940;2022-08-19T02:37:54;97540.09;;;25.09;48.42
65754;BME280;52488;47.502;18.940;2022-08-19T02:39:17;97549.88;;;24.95;49.19
65754;BME280;52488;47.502;18.940;2022-08-19T02:40:19;97542.84;;;24.96;49.19
65754;BME280;52488;47.502;18.940;2022-08-19T02:41:25;97538.63;;;24.95;48.79
65754;BME280;52488;47.502;18.940;2022-08-19T02:42:29;97539.41;;;25.08;48.38
65754;BME280;52488;47.502;18.940;2022-08-19T02:43:33;97533.09;;;25.12;48.55
65754;BME280;52488;47.502;18.940;2022-08-19T02:44:39;97542.84;;;24.98;48.73
65754;BME280;52488;47.502;18.940;2022-08-19T02:45:42;97531.69;;;25.25;48.01
65754;BME280;52488;47.502;18.940;2022-08-19T02:46:46;97544.34;;;25.24;48.26
65754;BME280;52488;47.502;18.940;2022-08-19T02:47:49;97544.34;;;25.10;48.92
65754;BME280;52488;47.502;18.940;2022-08-19T02:48:58;97535.84;;;24.99;48.74
65754;BME280;52488;47.502;18.940;2022-08-19T02:50:03;97545.03;;;25.16;48.65
65754;BME280;52488;47.502;18.940;2022-08-19T02:51:06;97554.09;;;24.94;49.14
65754;BME280;52488;47.502;18.940;2022-08-19T02:52:09;97549.84;;;24.87;49.28
65754;BME280;52488;47.502;18.940;2022-08-19T02:53:13;97549.84;;;24.85;49.50
65754;BME280;52488;47.502;18.940;2022-08-19T02:54:16;97561.81;;;24.88;49.72
65754;BME280;52488;47.502;18.940;2022-08-19T02:55:19;97559.72;;;25.00;49.07
65754;BME280;52488;47.502;18.940;2022-08-19T02:56:23;97561.81;;;24.88;50.54
65754;BME280;52488;47.502;18.940;2022-08-19T02:57:30;97562.56;;;25.05;48.77
65754;BME280;52488;47.502;18.940;2022-08-19T02:58:33;97563.94;;;24.95;49.07
65754;BME280;52488;47.502;18.940;2022-08-19T02:59:36;97563.25;;;24.99;49.41
65754;BME280;52488;47.502;18.940;2022-08-19T03:00:48;97566.69;;;24.85;49.07
65754;BME280;52488;47.502;18.940;2022-08-19T03:01:51;97559.69;;;24.82;49.81
65754;BME280;52488;47.502;18.940;2022-08-19T03:02:55;97565.31;;;24.88;49.19
65754;BME280;52488;47.502;18.940;2022-08-19T03:04:01;97556.19;;;24.90;49.05
65754;BME280;52488;47.502;18.940;2022-08-19T03:05:04;97562.50;;;24.88;49.31
65754;BME280;52488;47.502;18.940;2022-08-19T03:06:12;97556.16;;;24.84;49.72
65754;BME280;52488;47.502;18.940;2022-08-19T03:07:16;97563.84;;;24.75;49.90
65754;BME280;52488;47.502;18.940;2022-08-19T03:08:19;97555.44;;;24.77;50.17
65754;BME280;52488;47.502;18.940;2022-08-19T03:09:22;97555.44;;;24.77;50.21
65754;BME280;52488;47.502;18.940;2022-08-19T03:10:25;97561.09;;;24.83;49.16
65754;BME280;52488;47.502;18.940;2022-08-19T03:11:30;97563.16;;;24.81;49.52
65754;BME280;52488;47.502;18.940;2022-08-19T03:12:38;97565.31;;;24.92;49.41
65754;BME280;52488;47.502;18.940;2022-08-19T03:13:41;97564.59;;;24.84;49.65
65754;BME280;52488;47.502;18.940;2022-08-19T03:14:45;97569.47;;;24.81;49.80
65754;BME280;52488;47.502;18.940;2022-08-19T03:15:49;97573.72;;;24.84;49.91
65754;BME280;52488;47.502;18.940;2022-08-19T03:16:52;97574.41;;;24.79;50.39
65754;BME280;52488;47.502;18.940;2022-08-19T03:17:54;97577.87;;;24.75;50.06
65754;BME280;52488;47.502;18.940;2022-08-19T03:19:02;97577.16;;;24.68;50.17
65754;BME280;52488;47.502;18.940;2022-08-19T03:20:05;97579.28;;;24.70;50.71
65754;BME280;52488;47.502;18.940;2022-08-19T03:21:21;97575.03;;;24.61;51.06
65754;BME280;52488;47.502;18.940;2022-08-19T03:22:26;97578.56;;;24.67;50.16
65754;BME280;52488;47.502;18.940;2022-08-19T03:23:29;97584.91;;;24.76;50.51
65754;BME280;52488;47.502;18.940;2022-08-19T03:24:32;97576.50;;;24.72;50.97
65754;BME280;52488;47.502;18.940;2022-08-19T03:25:46;97574.97;;;24.53;50.61
65754;BME280;52488;47.502;18.940;2022-08-19T03:27:09;97573.56;;;24.52;50.34
65754;BME280;52488;47.502;18.940;2022-08-19T03:28:14;97578.50;;;24.51;50.52
65754;BME280;52488;47.502;18.940;2022-08-19T03:29:18;97579.97;;;24.68;50.38
65754;BME280;52488;47.502;18.940;2022-08-19T03:30:32;97580.62;;;24.57;50.07
65754;BME280;52488;47.502;18.940;2022-08-19T03:31:35;97583.50;;;24.67;50.95
65754;BME280;52488;47.502;18.940;2022-08-19T03:32:47;97583.38;;;24.48;50.55
65754;BME280;52488;47.502;18.940;2022-08-19T03:33:55;97586.22;;;24.53;50.37
65754;BME280;52488;47.502;18.940;2022-08-19T03:34:58;97589.06;;;24.65;50.79
65754;BME280;52488;47.502;18.940;2022-08-19T03:36:14;97586.28;;;24.61;50.59
65754;BME280;52488;47.502;18.940;2022-08-19T03:37:17;97590.41;;;24.47;50.48
65754;BME280;52488;47.502;18.940;2022-08-19T03:38:20;97586.28;;;24.61;50.83
65754;BME280;52488;47.502;18.940;2022-08-19T03:39:24;97589.03;;;24.51;50.87
65754;BME280;52488;47.502;18.940;2022-08-19T03:40:27;97589.66;;;24.43;50.99
65754;BME280;52488;47.502;18.940;2022-08-19T03:41:36;97588.25;;;24.38;51.34
65754;BME280;52488;47.502;18.940;2022-08-19T03:42:47;97587.56;;;24.41;51.61
65754;BME280;52488;47.502;18.940;2022-08-19T03:44:01;97586.09;;;24.32;51.70
65754;BME280;52488;47.502;18.940;2022-08-19T03:45:04;97598.69;;;24.29;51.84
65754;BME280;52488;47.502;18.940;2022-08-19T03:46:10;97591.69;;;24.32;51.77
65754;BME280;52488;47.502;18.940;2022-08-19T03:47:13;97590.97;;;24.32;52.49
65754;BME280;52488;47.502;18.940;2022-08-19T03:48:19;97601.50;;;24.31;52.00
65754;BME280;52488;47.502;18.940;2022-08-19T03:49:24;97607.06;;;24.23;52.13
65754;BME280;52488;47.502;18.940;2022-08-19T03:50:29;97606.31;;;24.14;52.33
65754;BME280;52488;47.502;18.940;2022-08-19T03:51:35;97604.84;;;24.05;52.96
65754;BME280;52488;47.502;18.940;2022-08-19T03:52:39;97608.31;;;24.04;52.52
65754;BME280;52488;47.502;18.940;2022-08-19T03:53:48;97604.94;;;24.17;52.27
65754;BME280;52488;47.502;18.940;2022-08-19T03:54:51;97611.12;;;24.04;52.82
65754;BME280;52488;47.502;18.940;2022-08-19T03:55:55;97609.06;;;24.04;53.00
65754;BME280;52488;47.502;18.940;2022-08-19T03:56:57;97603.31;;;23.88;53.56
65754;BME280;52488;47.502;18.940;2022-08-19T03:58:01;97605.47;;;23.97;53.23
65754;BME280;52488;47.502;18.940;2022-08-19T03:59:05;97593.47;;;23.85;53.48
65754;BME280;52488;47.502;18.940;2022-08-19T04:00:09;97599.09;;;23.89;53.38
65754;BME280;52488;47.502;18.940;2022-08-19T04:01:18;97592.72;;;23.80;53.54
65754;BME280;52488;47.502;18.940;2022-08-19T04:02:36;97583.59;;;23.78;53.58
65754;BME280;52488;47.502;18.940;2022-08-19T04:03:39;97590.53;;;23.70;54.07
65754;BME280;52488;47.502;18.940;2022-08-19T04:04:43;97590.56;;;23.75;53.88
65754;BME280;52488;47.502;18.940;2022-08-19T04:05:46;97596.97;;;23.87;53.48
65754;BME280;52488;47.502;18.940;2022-08-19T04:06:50;97598.50;;;24.01;52.98
65754;BME280;52488;47.502;18.940;2022-08-19T04:07:55;97594.94;;;23.94;53.00
65754;BME280;52488;47.502;18.940;2022-08-19T04:09:04;97604.62;;;23.79;53.71
65754;BME280;52488;47.502;18.940;2022-08-19T04:10:08;97603.28;;;23.84;53.48
65754;BME280;52488;47.502;18.940;2022-08-19T04:11:15;97604.69;;;23.87;53.76
65754;BME280;52488;47.502;18.940;2022-08-19T04:12:18;97611.66;;;23.82;53.67
65754;BME280;52488;47.502;18.940;2022-08-19T04:13:22;97615.25;;;23.88;53.62
65754;BME280;52488;47.502;18.940;2022-08-19T04:14:29;97613.09;;;23.85;53.50
65754;BME280;52488;47.502;18.940;2022-08-19T04:15:32;97610.91;;;23.75;53.94
65754;BME280;52488;47.502;18.940;2022-08-19T04:16:42;97615.09;;;23.74;54.31
65754;BME280;52488;47.502;18.940;2022-08-19T04:17:47;97620.06;;;23.78;53.87
65754;BME280;52488;47.502;18.940;2022-08-19T04:18:50;97618.06;;;23.92;53.71
65754;BME280;52488;47.502;18.940;2022-08-19T04:19:52;97619.34;;;23.79;53.96
65754;BME280;52488;47.502;18.940;2022-08-19T04:20:55;97623.41;;;23.64;54.64
65754;BME280;52488;47.502;18.940;2022-08-19T04:21:59;97616.41;;;23.65;54.54
65754;BME280;52488;47.502;18.940;2022-08-19T04:23:02;97616.44;;;23.67;54.41
65754;BME280;52488;47.502;18.940;2022-08-19T04:24:05;97608.03;;;23.67;54.17
65754;BME280;52488;47.502;18.940;2022-08-19T04:25:09;97603.13;;;23.67;54.05
65754;BME280;52488;47.502;18.940;2022-08-19T04:26:18;97610.09;;;23.64;54.23
65754;BME280;52488;47.502;18.940;2022-08-19T04:27:22;97611.50;;;23.63;54.41
65754;BME280;52488;47.502;18.940;2022-08-19T04:28:25;97612.19;;;23.64;54.15
65754;BME280;52488;47.502;18.940;2022-08-19T04:29:29;97605.94;;;23.67;54.24
65754;BME280;52488;47.502;18.940;2022-08-19T04:30:47;97609.50;;;23.72;54.09
65754;BME280;52488;47.502;18.940;2022-08-19T04:31:51;97617.22;;;23.74;54.05
65754;BME280;52488;47.502;18.940;2022-08-19T04:32:55;97615.69;;;23.62;54.34
65754;BME280;52488;47.502;18.940;2022-08-19T04:33:59;97613.56;;;23.61;54.42
65754;BME280;52488;47.502;18.940;2022-08-19T04:35:04;97615.00;;;23.64;54.32
65754;BME280;52488;47.502;18.940;2022-08-19T04:36:25;97614.97;;;23.60;54.71
65754;BME280;52488;47.502;18.940;2022-08-19T04:37:28;97623.56;;;23.78;54.27
65754;BME280;52488;47.502;18.940;2022-08-19T04:38:37;97622.28;;;23.93;53.79
65754;BME280;52488;47.502;18.940;2022-08-19T04:39:39;97630.56;;;23.79;54.21
65754;BME280;52488;47.502;18.940;2022-08-19T04:41:04;97628.41;;;23.72;54.15
65754;BME280;52488;47.502;18.940;2022-08-19T04:42:25;97619.31;;;23.71;54.20
65754;BME280;52488;47.502;18.940;2022-08-19T04:43:44;97627.75;;;23.77;54.05
65754;BME280;52488;47.502;18.940;2022-08-19T04:44:51;97613.69;;;23.71;54.57
65754;BME280;52488;47.502;18.940;2022-08-19T04:45:56;97622.03;;;23.65;54.64
65754;BME280;52488;47.502;18.940;2022-08-19T04:47:03;97610.13;;;23.66;54.51
65754;BME280;52488;47.502;18.940;2022-08-19T04:48:12;97607.34;;;23.66;54.41
65754;BME280;52488;47.502;18.940;2022-08-19T04:49:28;97615.75;;;23.68;54.72
65754;BME280;52488;47.502;18.940;2022-08-19T04:50:32;97612.94;;;23.66;54.70
65754;BME280;52488;47.502;18.940;2022-08-19T04:51:35;97608.00;;;23.63;54.35
65754;BME280;52488;47.502;18.940;2022-08-19T04:52:42;97612.81;;;23.58;54.41
65754;BME280;52488;47.502;18.940;2022-08-19T04:53:45;97619.12;;;23.59;54.79
65754;BME280;52488;47.502;18.940;2022-08-19T04:54:47;97615.00;;;23.64;54.83
65754;BME280;52488;47.502;18.940;2022-08-19T04:55:50;97617.84;;;23.66;54.96
65754;BME280;52488;47.502;18.940;2022-08-19T04:56:54;97613.47;;;23.51;55.14
65754;BME280;52488;47.502;18.940;2022-08-19T04:57:56;97608.63;;;23.59;54.58
65754;BME280;52488;47.502;18.940;2022-08-19T04:58:59;97620.63;;;23.64;54.52
65754;BME280;52488;47.502;18.940;2022-08-19T05:00:08;97622.03;;;23.65;54.51
65754;BME280;52488;47.502;18.940;2022-08-19T05:01:34;97620.72;;;23.74;54.48
65754;BME280;52488;47.502;18.940;2022-08-19T05:02:36;97619.91;;;23.63;54.57
65754;BME280;52488;47.502;18.940;2022-08-19T05:03:39;97623.50;;;23.72;54.29
65754;BME280;52488;47.502;18.940;2022-08-19T05:04:42;97624.75;;;23.59;54.80
65754;BME280;52488;47.502;18.940;2022-08-19T05:05:46;97617.78;;;23.62;54.82
65754;BME280;52488;47.502;18.940;2022-08-19T05:06:50;97621.38;;;23.70;54.56
65754;BME280;52488;47.502;18.940;2022-08-19T05:08:00;97622.78;;;23.69;54.84
65754;BME280;52488;47.502;18.940;2022-08-19T05:09:04;97620.00;;;23.72;54.38
65754;BME280;52488;47.502;18.940;2022-08-19T05:10:07;97619.94;;;23.65;54.59
65754;BME280;52488;47.502;18.940;2022-08-19T05:11:17;97623.47;;;23.66;54.55
65754;BME280;52488;47.502;18.940;2022-08-19T05:12:27;97620.66;;;23.68;54.62
65754;BME280;52488;47.502;18.940;2022-08-19T05:13:31;97629.78;;;23.68;54.39
65754;BME280;52488;47.502;18.940;2022-08-19T05:14:35;97623.50;;;23.72;54.48
65754;BME280;52488;47.502;18.940;2022-08-19T05:15:39;97624.97;;;23.79;54.31
65754;BME280;52488;47.502;18.940;2022-08-19T05:16:41;97620.72;;;23.76;54.41
65754;BME280;52488;47.502;18.940;2022-08-19T05:17:44;97615.13;;;23.76;54.09
65754;BME280;52488;47.502;18.940;2022-08-19T05:19:07;97613.09;;;23.85;54.04
65754;BME280;52488;47.502;18.940;2022-08-19T05:20:28;97615.91;;;23.87;54.36
65754;BME280;52488;47.502;18.940;2022-08-19T05:21:49;97618.72;;;23.87;54.19
65754;BME280;52488;47.502;18.940;2022-08-19T05:23:11;97622.31;;;23.95;54.00
65754;BME280;52488;47.502;18.940;2022-08-19T05:24:24;97613.22;;;23.99;53.60
65754;BME280;52488;47.502;18.940;2022-08-19T05:25:26;97619.50;;;23.95;53.92
65754;BME280;52488;47.502;18.940;2022-08-19T05:26:29;97623.00;;;23.96;54.04
65754;BME280;52488;47.502;18.940;2022-08-19T05:27:33;97618.88;;;24.05;53.28
65754;BME280;52488;47.502;18.940;2022-08-19T05:28:35;97623.00;;;23.98;53.70
65754;BME280;52488;47.502;18.940;2022-08-19T05:29:38;97625.09;;;23.95;53.71
65754;BME280;52488;47.502;18.940;2022-08-19T05:30:41;97623.00;;;23.96;53.81
65754;BME280;52488;47.502;18.940;2022-08-19T05:31:49;97621.69;;;24.05;53.64
65754;BME280;52488;47.502;18.940;2022-08-19T05:32:52;97625.84;;;24.00;53.68
65754;BME280;52488;47.502;18.940;2022-08-19T05:33:56;97624.59;;;24.21;53.27
65754;BME280;52488;47.502;18.940;2022-08-19T05:35:01;97625.44;;;24.38;52.60
65754;BME280;52488;47.502;18.940;2022-08-19T05:36:04;97619.00;;;24.23;52.83
65754;BME280;52488;47.502;18.940;2022-08-19T05:37:07;97625.31;;;24.24;52.57
65754;BME280;52488;47.502;18.940;2022-08-19T05:38:11;97630.22;;;24.26;52.72
65754;BME280;52488;47.502;18.940;2022-08-19T05:39:18;97636.69;;;24.40;52.33
65754;BME280;52488;47.502;18.940;2022-08-19T05:40:21;97636.63;;;24.32;53.14
65754;BME280;52488;47.502;18.940;2022-08-19T05:41:28;97631.06;;;24.40;52.76
65754;BME280;52488;47.502;18.940;2022-08-19T05:42:32;97633.94;;;24.51;52.12
65754;BME280;52488;47.502;18.940;2022-08-19T05:43:39;97631.84;;;24.53;52.18
65754;BME280;52488;47.502;18.940;2022-08-19T05:44:43;97628.38;;;24.57;52.14